Guarapua, Brazil
Current Conditions -  °F | °C
As of 8:00 PM on Friday 28 Nov 2014 (Local Time) from SBBU Reporting Station
Clear Clear  
Wind Chill: 79°   Ceiling: Unl
Heat Index: 81°   Visibility: 6mi
Dew Point: 70°   Wind: 9mph
Humidity: 74%   Direction: 150°SSE
Pressure: 29.97"   Gusts: NA
Location:  22.25°S, 48.39°W
Report Text: SBBU 282200Z 15008KT CAVOK 26/21 Q1015
Loading
Personal Weather Stations






























Interactive Weather Map New forecast layout! Learn more

10-Day Weather Forecast

Advertisements
Track Severe Weather on mobile